createdAt,value
2022-12-26T00:04:57.274Z,100
2022-12-26T00:09:59.105Z,100
2022-12-26T00:15:00.803Z,100
2022-12-26T00:20:02.460Z,100
2022-12-26T00:25:04.210Z,100
2022-12-26T00:30:05.914Z,100
2022-12-26T00:35:07.735Z,100
2022-12-26T00:40:09.490Z,100
2022-12-26T00:45:11.612Z,100
2022-12-26T00:50:15.674Z,100
2022-12-26T00:55:18.199Z,100
2022-12-26T01:00:20.277Z,100
2022-12-26T01:05:22.168Z,100
2022-12-26T01:10:23.874Z,100
2022-12-26T01:15:25.716Z,100
2022-12-26T01:20:27.537Z,100
2022-12-26T01:25:29.595Z,100
2022-12-26T01:30:31.394Z,100
2022-12-26T01:35:33.408Z,100
2022-12-26T01:40:35.357Z,100
2022-12-26T01:45:37.519Z,100
2022-12-26T01:50:39.611Z,100
2022-12-26T01:55:41.698Z,100
2022-12-26T02:00:43.593Z,100
2022-12-26T02:05:45.108Z,100
2022-12-26T02:10:46.954Z,100
2022-12-26T02:15:49.132Z,100
2022-12-26T02:20:50.924Z,100
2022-12-26T02:25:52.885Z,100
2022-12-26T02:30:54.883Z,100
2022-12-26T02:35:56.830Z,100
2022-12-26T02:40:58.957Z,100
2022-12-26T02:46:00.696Z,100
2022-12-26T02:51:02.416Z,100
2022-12-26T02:56:04.306Z,100
2022-12-26T03:01:06.103Z,100
2022-12-26T03:06:07.680Z,100
2022-12-26T03:11:09.237Z,100
2022-12-26T03:16:11.027Z,100
2022-12-26T03:21:12.859Z,100
2022-12-26T03:26:14.520Z,100
2022-12-26T03:31:16.282Z,100
2022-12-26T03:36:17.885Z,100
2022-12-26T03:41:19.361Z,100
2022-12-26T03:46:21.074Z,100
2022-12-26T03:51:22.593Z,100
2022-12-26T03:56:24.399Z,100
2022-12-26T04:01:26.559Z,100
2022-12-26T04:06:28.315Z,100
2022-12-26T04:11:29.951Z,100
2022-12-26T04:16:31.444Z,100
2022-12-26T04:21:33.234Z,100
2022-12-26T04:26:35.017Z,100
2022-12-26T04:31:36.619Z,100
2022-12-26T04:36:38.227Z,100
2022-12-26T04:41:39.732Z,100
2022-12-26T04:46:41.607Z,100
2022-12-26T04:51:43.360Z,100
2022-12-26T04:56:45.050Z,100
2022-12-26T05:01:46.833Z,100
2022-12-26T05:06:48.422Z,100
2022-12-26T05:11:49.923Z,100
2022-12-26T05:16:51.674Z,100
2022-12-26T05:21:53.237Z,100
2022-12-26T05:26:55.996Z,100
2022-12-26T05:31:57.577Z,100
2022-12-26T05:36:59.143Z,100
2022-12-26T05:42:00.869Z,100
2022-12-26T05:47:02.701Z,96.32137
2022-12-26T05:52:04.199Z,94.30858
2022-12-26T05:57:05.875Z,89.12327
2022-12-26T06:02:07.527Z,83.41653
2022-12-26T06:07:09.124Z,84.93963
2022-12-26T06:12:10.716Z,82.26601
2022-12-26T06:17:12.430Z,78.13547
2022-12-26T06:22:13.956Z,79.04552
2022-12-26T06:27:15.947Z,72.77346
2022-12-26T06:32:17.896Z,72.51979
2022-12-26T06:37:19.386Z,71.58848
2022-12-26T06:42:20.987Z,71.92141
2022-12-26T06:47:22.830Z,64.86926
2022-12-26T06:52:24.678Z,67.32755
2022-12-26T06:57:26.827Z,66.08468
2022-12-26T07:02:28.936Z,69.06583
2022-12-26T07:07:30.840Z,68.73612
2022-12-26T07:12:32.641Z,60.67145
2022-12-26T07:17:34.571Z,62.88879
2022-12-26T07:22:36.258Z,62.2829
2022-12-26T07:27:39.116Z,60.94045
2022-12-26T07:32:40.988Z,55.70206
2022-12-26T07:37:42.466Z,56.62449
2022-12-26T07:42:43.950Z,52.36265
2022-12-26T07:47:45.696Z,54.56031
2022-12-26T07:52:47.646Z,52.82444
2022-12-26T07:57:49.859Z,54.0771
2022-12-26T08:02:52.008Z,51.50581
2022-12-26T08:07:53.817Z,48.32829
2022-12-26T08:18:06.073Z,49.34239
2022-12-26T08:23:07.533Z,46.81201
2022-12-26T08:28:09.141Z,47.53359
2022-12-26T08:33:10.890Z,45.40716
2022-12-26T08:38:12.580Z,47.61056
2022-12-26T08:43:36.899Z,45.86951
2022-12-26T08:48:46.989Z,48.07977
2022-12-26T08:53:48.653Z,45.32609
2022-12-26T08:58:50.143Z,46.90626
2022-12-26T09:03:51.923Z,46.80238
2022-12-26T09:08:53.461Z,44.13552
2022-12-26T09:13:55.324Z,43.62348
2022-12-26T09:18:58.168Z,42.76221
2022-12-26T09:23:59.739Z,43.62198
2022-12-26T09:29:01.289Z,40.24833
2022-12-26T09:34:02.892Z,43.46993
2022-12-26T09:39:04.613Z,39.25212
2022-12-26T09:44:06.534Z,39.22426
2022-12-26T09:49:08.087Z,41.21395
2022-12-26T09:54:09.545Z,39.1158
2022-12-26T09:59:11.092Z,41.65881
2022-12-26T10:04:12.966Z,40.30758
2022-12-26T10:09:14.594Z,42.73764
2022-12-26T10:14:21.348Z,41.81234
2022-12-26T10:19:28.693Z,43.07871
2022-12-26T10:24:34.057Z,39.6635
2022-12-26T10:29:35.774Z,41.76221
2022-12-26T10:34:37.591Z,38.70904
2022-12-26T10:39:39.490Z,41.65545
2022-12-26T10:44:41.464Z,42.17459
2022-12-26T10:49:43.694Z,37.72601
2022-12-26T10:54:45.497Z,37.83691
2022-12-26T10:59:47.275Z,42.53151
2022-12-26T11:05:15.594Z,40.13484
2022-12-26T11:10:28.546Z,40.5019
2022-12-26T11:15:30.702Z,40.03895
2022-12-26T11:20:32.213Z,39.75379
2022-12-26T11:25:33.981Z,43.51108
2022-12-26T11:30:35.860Z,42.38113
2022-12-26T11:35:37.566Z,42.56717
2022-12-26T11:40:39.398Z,42.91272
2022-12-26T11:45:41.636Z,43.05891
2022-12-26T11:50:43.405Z,44.34449
2022-12-26T11:55:45.645Z,44.01385
2022-12-26T12:00:47.532Z,44.80685
2022-12-26T12:05:49.030Z,45.54774
2022-12-26T12:10:50.678Z,46.2386
2022-12-26T12:15:52.360Z,44.75425
2022-12-26T12:20:54.030Z,48.14567
2022-12-26T12:25:55.441Z,52.88489
2022-12-26T12:30:58.176Z,61.35336
2022-12-26T12:36:00.128Z,66.65992
2022-12-26T12:41:01.632Z,71.74026
2022-12-26T12:46:03.570Z,72.04238
2022-12-26T12:51:05.449Z,70.42074
2022-12-26T12:56:06.884Z,71.60923
2022-12-26T13:06:19.362Z,71.949
2022-12-26T13:11:21.150Z,76.39147
2022-12-26T13:16:23.310Z,79.76872
2022-12-26T13:21:25.639Z,67.6894
2022-12-26T13:26:27.983Z,66.09426
2022-12-26T13:31:30.191Z,63.66803
2022-12-26T13:36:32.554Z,67.39042
2022-12-26T13:41:34.444Z,61.79521
2022-12-26T13:46:36.655Z,57.97847
2022-12-26T13:51:38.816Z,53.11099
2022-12-26T13:56:45.711Z,54.68841
2022-12-26T14:01:52.259Z,52.1033
2022-12-26T14:06:57.172Z,52.74415
2022-12-26T14:11:59.003Z,50.2603
2022-12-26T14:17:01.166Z,47.65526
2022-12-26T14:22:03.216Z,48.18377
2022-12-26T14:27:04.810Z,45.81181
2022-12-26T14:32:06.528Z,48.12536
2022-12-26T14:37:08.211Z,47.76447
2022-12-26T14:42:09.760Z,47.6658
2022-12-26T14:47:11.729Z,44.82915
2022-12-26T14:52:13.497Z,43.01126
2022-12-26T14:57:15.391Z,39.58995
2022-12-26T15:02:17.439Z,40.31263
2022-12-26T15:07:20.848Z,39.89026
2022-12-26T15:12:22.846Z,39.74834
2022-12-26T15:17:24.998Z,39.49125
2022-12-26T15:22:26.518Z,38.22269
2022-12-26T15:27:28.032Z,38.55682
2022-12-26T15:32:29.861Z,38.60011
2022-12-26T15:37:31.671Z,37.94829
2022-12-26T15:42:33.620Z,38.24994
2022-12-26T15:47:35.386Z,37.52787
2022-12-26T15:52:37.042Z,37.40886
2022-12-26T15:57:39.275Z,38.89099
2022-12-26T16:02:40.985Z,39.86367
2022-12-26T16:07:42.742Z,39.87926
2022-12-26T16:12:44.232Z,40.27792
2022-12-26T16:17:46.128Z,41.51992
2022-12-26T16:22:47.765Z,41.79914
2022-12-26T16:27:49.208Z,41.76149
2022-12-26T16:32:50.812Z,40.85199
2022-12-26T16:37:52.314Z,40.84566
2022-12-26T16:42:53.755Z,40.97531
2022-12-26T16:47:55.442Z,43.12241
2022-12-26T16:52:57.180Z,44.73091
2022-12-26T16:57:58.823Z,44.84941
2022-12-26T17:03:00.607Z,44.64627
2022-12-26T17:08:02.427Z,44.68745
2022-12-26T17:13:03.966Z,44.92353
2022-12-26T17:18:05.926Z,45.61614
2022-12-26T17:23:07.558Z,47.14492
2022-12-26T17:28:09.010Z,47.04694
2022-12-26T17:33:10.471Z,47.3903
2022-12-26T17:38:12.013Z,48.19988
2022-12-26T17:43:13.657Z,47.7764
2022-12-26T17:48:15.340Z,47.37154
2022-12-26T17:53:17.145Z,46.76469
2022-12-26T17:58:18.634Z,46.0048
2022-12-26T18:03:20.147Z,46.32097
2022-12-26T18:08:21.910Z,51.51987
2022-12-26T18:13:23.543Z,59.32961
2022-12-26T18:18:25.301Z,80.83951
2022-12-26T18:23:27.062Z,88.00515
2022-12-26T18:28:28.642Z,99.65297
2022-12-26T18:33:30.328Z,98.84061
2022-12-26T18:38:32.355Z,96.11906
2022-12-26T18:43:34.071Z,96.28742
2022-12-26T18:48:36.056Z,100
2022-12-26T18:53:38.246Z,96.66638
2022-12-26T18:58:40.086Z,95.86274
2022-12-26T19:03:42.161Z,100
2022-12-26T19:08:44.006Z,98.16888
2022-12-26T19:13:46.026Z,96.55455
2022-12-26T19:18:47.624Z,97.80823
2022-12-26T19:23:49.398Z,99.20001
2022-12-26T19:33:52.024Z,96.11406
2022-12-26T19:38:53.700Z,95.00587
2022-12-26T19:43:55.195Z,97.58347
2022-12-26T19:48:56.771Z,93.81462
2022-12-26T19:53:58.487Z,94.70002
2022-12-26T19:59:00.263Z,91.92312
2022-12-26T20:04:02.077Z,95.51937
2022-12-26T20:09:04.183Z,96.54753
2022-12-26T20:14:05.653Z,98.3412
2022-12-26T20:19:07.206Z,94.91614
2022-12-26T20:24:08.897Z,100
2022-12-26T20:29:10.493Z,100
2022-12-26T20:34:11.939Z,100
2022-12-26T20:39:13.849Z,97.27971
2022-12-26T20:44:15.696Z,100
2022-12-26T20:49:17.293Z,99.11401
2022-12-26T20:54:18.843Z,98.60426
2022-12-26T20:59:20.768Z,100
2022-12-26T21:04:22.569Z,100
2022-12-26T21:09:24.966Z,98.01185
2022-12-26T21:14:26.920Z,100
2022-12-26T21:19:28.739Z,100
2022-12-26T21:24:30.729Z,100
2022-12-26T21:29:32.660Z,100
2022-12-26T21:34:34.439Z,100
2022-12-26T21:39:36.723Z,100
2022-12-26T21:44:38.541Z,100
2022-12-26T21:49:40.601Z,100
2022-12-26T21:54:48.573Z,100
2022-12-26T21:59:51.330Z,100
2022-12-26T22:04:53.108Z,100
2022-12-26T22:09:55.463Z,100
2022-12-26T22:14:56.957Z,100
2022-12-26T22:19:58.764Z,100
2022-12-26T22:25:00.939Z,100
2022-12-26T22:30:02.757Z,100
2022-12-26T22:35:04.737Z,100
2022-12-26T22:40:06.651Z,100
2022-12-26T22:45:08.129Z,100
2022-12-26T22:50:09.723Z,100
2022-12-26T22:55:11.299Z,100
2022-12-26T23:00:12.793Z,100
2022-12-26T23:05:14.542Z,100
2022-12-26T23:10:16.746Z,100
2022-12-26T23:15:18.631Z,100
2022-12-26T23:20:20.468Z,100
2022-12-26T23:25:22.633Z,100
2022-12-26T23:30:24.457Z,100
2022-12-26T23:35:26.205Z,100
2022-12-26T23:40:28.277Z,100
2022-12-26T23:45:30.057Z,100
2022-12-26T23:50:31.906Z,100
2022-12-26T23:55:33.858Z,100
